createdAt,value
2022-08-17T00:02:24.140Z,41.40
2022-08-17T00:07:28.442Z,41.54
2022-08-17T00:12:43.032Z,41.48
2022-08-17T00:17:46.662Z,41.80
2022-08-17T00:22:48.122Z,42.16
2022-08-17T00:27:49.516Z,42.78
2022-08-17T00:33:12.645Z,42.82
2022-08-17T00:38:12.568Z,42.57
2022-08-17T00:43:18.988Z,42.73
2022-08-17T00:48:29.066Z,42.59
2022-08-17T00:53:32.790Z,42.58
2022-08-17T00:58:36.082Z,42.66
2022-08-17T01:03:39.090Z,42.67
2022-08-17T01:08:40.756Z,42.58
2022-08-17T01:13:43.204Z,42.67
2022-08-17T01:18:45.551Z,42.87
2022-08-17T01:23:46.890Z,43.26
2022-08-17T01:28:54.857Z,43.43
2022-08-17T01:33:59.905Z,43.54
2022-08-17T01:39:04.650Z,43.44
2022-08-17T01:44:07.334Z,43.50
2022-08-17T01:49:10.395Z,43.62
2022-08-17T01:54:13.700Z,43.74
2022-08-17T01:59:16.087Z,43.68
2022-08-17T02:04:17.497Z,43.88
2022-08-17T02:09:23.323Z,44.16
2022-08-17T02:14:27.382Z,44.02
2022-08-17T02:19:31.126Z,44.21
2022-08-17T02:25:00.188Z,44.11
2022-08-17T02:29:55.079Z,44.29
2022-08-17T02:34:57.211Z,44.35
2022-08-17T02:39:59.380Z,44.26
2022-08-17T02:45:01.697Z,44.39
2022-08-17T02:50:03.828Z,44.45
2022-08-17T02:55:06.663Z,44.50
2022-08-17T03:00:11.256Z,44.78
2022-08-17T03:05:14.507Z,44.80
2022-08-17T03:10:16.420Z,44.80
2022-08-17T03:15:20.487Z,44.85
2022-08-17T03:20:22.505Z,44.80
2022-08-17T03:25:25.685Z,44.92
2022-08-17T03:30:27.859Z,44.99
2022-08-17T03:35:30.844Z,44.96
2022-08-17T03:40:39.860Z,45.22
2022-08-17T03:46:27.915Z,45.26
2022-08-17T03:51:52.674Z,45.45
2022-08-17T03:57:14.330Z,45.47
2022-08-17T04:02:18.083Z,45.43
2022-08-17T04:07:24.178Z,45.89
2022-08-17T04:12:26.703Z,46.09
2022-08-17T04:17:28.940Z,46.02
2022-08-17T04:22:34.250Z,46.32
2022-08-17T04:27:36.303Z,46.52
2022-08-17T04:33:00.819Z,46.50
2022-08-17T04:38:09.758Z,46.31
2022-08-17T04:43:16.366Z,46.23
2022-08-17T04:48:20.734Z,46.29
2022-08-17T04:53:22.085Z,46.39
2022-08-17T04:58:23.453Z,46.20
2022-08-17T05:03:24.842Z,46.47
2022-08-17T05:08:26.413Z,46.56
2022-08-17T05:13:29.694Z,46.48
2022-08-17T05:18:31.442Z,46.75
2022-08-17T05:23:37.830Z,46.72
2022-08-17T05:28:44.959Z,46.63
2022-08-17T05:33:47.531Z,46.50
2022-08-17T05:38:48.905Z,46.36
2022-08-17T05:43:54.382Z,46.21
2022-08-17T05:48:59.198Z,46.17
2022-08-17T05:54:06.924Z,46.10
2022-08-17T05:59:14.115Z,45.86
2022-08-17T06:04:15.421Z,45.90
2022-08-17T06:09:33.992Z,45.83
2022-08-17T06:14:54.159Z,45.83
2022-08-17T06:20:02.781Z,45.70
2022-08-17T06:25:26.009Z,45.56
2022-08-17T06:30:29.014Z,45.24
2022-08-17T06:36:10.621Z,45.30
2022-08-17T06:41:27.141Z,44.87
2022-08-17T06:46:39.937Z,44.81
2022-08-17T06:51:57.331Z,44.55
2022-08-17T06:57:14.745Z,44.44
2022-08-17T07:02:19.594Z,44.68
2022-08-17T07:07:50.386Z,44.23
2022-08-17T07:12:54.017Z,43.91
2022-08-17T07:17:56.083Z,43.59
2022-08-17T07:23:00.407Z,43.34
2022-08-17T07:28:07.020Z,43.10
2022-08-17T07:33:12.561Z,43.00
2022-08-17T07:38:25.240Z,42.97
2022-08-17T07:43:39.600Z,42.80
2022-08-17T07:48:42.247Z,42.56
2022-08-17T07:53:45.137Z,42.26
2022-08-17T07:58:48.866Z,42.11
2022-08-17T08:03:52.531Z,41.89
2022-08-17T08:08:55.562Z,41.84
2022-08-17T08:14:16.474Z,41.55
2022-08-17T08:19:20.984Z,41.01
2022-08-17T08:24:22.534Z,41.20
2022-08-17T08:29:29.233Z,40.86
2022-08-17T08:34:58.842Z,40.29
2022-08-17T08:40:07.402Z,40.47
2022-08-17T08:45:16.151Z,39.73
2022-08-17T08:50:37.873Z,39.20
2022-08-17T08:55:49.774Z,39.09
2022-08-17T09:00:54.251Z,38.81
2022-08-17T09:06:38.533Z,38.65
2022-08-17T09:12:01.188Z,38.24
2022-08-17T09:17:12.688Z,37.93
2022-08-17T09:22:24.548Z,37.28
2022-08-17T09:27:40.869Z,36.64
2022-08-17T09:32:43.945Z,35.75
2022-08-17T09:38:04.191Z,35.74
2022-08-17T09:43:24.835Z,35.54
2022-08-17T09:48:31.645Z,35.20
2022-08-17T09:53:35.450Z,34.59
2022-08-17T09:58:50.424Z,34.42
2022-08-17T10:04:03.732Z,34.19
2022-08-17T10:09:14.448Z,34.10
2022-08-17T10:14:36.248Z,33.98
2022-08-17T10:19:40.362Z,33.40
2022-08-17T10:25:23.749Z,33.41
2022-08-17T10:30:31.389Z,33.04
2022-08-17T10:35:51.852Z,32.98
2022-08-17T10:41:05.444Z,31.99
2022-08-17T10:46:31.168Z,31.87
2022-08-17T10:51:37.762Z,31.35
2022-08-17T10:56:41.134Z,30.66
2022-08-17T11:02:00.835Z,30.60
2022-08-17T11:07:21.883Z,30.56
2022-08-17T11:12:37.501Z,30.50
2022-08-17T11:17:48.725Z,30.62
2022-08-17T11:22:50.406Z,30.28
2022-08-17T11:28:05.058Z,29.82
2022-08-17T11:33:25.248Z,30.12
2022-08-17T11:38:41.320Z,29.34
2022-08-17T11:43:45.739Z,28.96
2022-08-17T11:49:14.577Z,29.09
2022-08-17T11:54:34.064Z,28.79
2022-08-17T11:59:36.430Z,28.94
2022-08-17T12:04:37.874Z,29.01
2022-08-17T12:09:41.718Z,29.49
2022-08-17T12:15:09.526Z,28.99
2022-08-17T12:20:23.002Z,29.14
2022-08-17T12:25:32.927Z,28.56
2022-08-17T12:30:35.468Z,29.40
2022-08-17T12:35:38.802Z,29.26
2022-08-17T12:40:40.147Z,29.21
2022-08-17T12:45:41.798Z,28.36
2022-08-17T12:50:45.700Z,28.10
2022-08-17T12:55:47.770Z,27.53
2022-08-17T13:00:51.163Z,26.87
2022-08-17T13:05:52.483Z,26.48
2022-08-17T13:11:01.929Z,26.70
2022-08-17T13:16:05.592Z,26.58
2022-08-17T13:21:11.959Z,26.37
2022-08-17T13:26:15.783Z,25.68
2022-08-17T13:31:21.393Z,25.88
2022-08-17T13:36:29.896Z,25.92
2022-08-17T13:41:38.092Z,26.21
2022-08-17T13:46:39.439Z,26.21
2022-08-17T13:51:45.415Z,26.80
2022-08-17T13:56:58.474Z,26.29
2022-08-17T14:01:59.998Z,26.00
2022-08-17T14:07:03.878Z,25.74
2022-08-17T14:12:06.683Z,25.37
2022-08-17T14:17:08.131Z,25.20
2022-08-17T14:22:13.014Z,24.79
2022-08-17T14:27:17.890Z,24.59
2022-08-17T14:32:21.038Z,24.21
2022-08-17T14:37:26.223Z,24.31
2022-08-17T14:42:29.720Z,24.12
2022-08-17T14:47:31.144Z,24.16
2022-08-17T14:52:32.652Z,24.31
2022-08-17T14:57:34.641Z,24.24
2022-08-17T15:02:44.270Z,24.23
2022-08-17T15:07:45.812Z,24.20
2022-08-17T15:12:47.510Z,24.07
2022-08-17T15:17:48.973Z,24.05
2022-08-17T15:22:51.051Z,24.13
2022-08-17T15:27:52.782Z,24.17
2022-08-17T15:32:55.503Z,24.30
2022-08-17T15:37:58.245Z,24.50
2022-08-17T15:43:03.701Z,24.21
2022-08-17T15:48:05.078Z,24.05
2022-08-17T15:53:06.799Z,24.19
2022-08-17T15:58:08.176Z,24.24
2022-08-17T16:03:20.308Z,24.09
2022-08-17T16:08:30.886Z,24.29
2022-08-17T16:13:32.633Z,24.21
2022-08-17T16:18:36.312Z,24.32
2022-08-17T16:23:37.622Z,24.40
2022-08-17T16:28:38.948Z,24.39
2022-08-17T16:33:41.129Z,24.34
2022-08-17T16:38:42.534Z,24.60
2022-08-17T16:43:45.555Z,24.82
2022-08-17T16:48:46.892Z,24.93
2022-08-17T16:53:48.442Z,25.08
2022-08-17T16:59:09.223Z,25.07
2022-08-17T17:04:26.857Z,25.10
2022-08-17T17:09:32.986Z,25.42
2022-08-17T17:14:42.999Z,25.81
2022-08-17T17:20:03.249Z,25.68
2022-08-17T17:25:07.702Z,26.03
2022-08-17T17:30:12.084Z,26.09
2022-08-17T17:35:16.321Z,26.08
2022-08-17T17:40:21.539Z,26.48
2022-08-17T17:45:31.798Z,26.37
2022-08-17T17:50:36.701Z,26.91
2022-08-17T17:55:41.125Z,27.02
2022-08-17T18:01:01.257Z,26.83
2022-08-17T18:06:12.984Z,27.10
2022-08-17T18:11:34.830Z,27.31
2022-08-17T18:16:36.708Z,27.25
2022-08-17T18:21:39.858Z,27.28
2022-08-17T18:26:52.731Z,27.56
2022-08-17T18:32:14.985Z,27.72
2022-08-17T18:37:52.451Z,27.85
2022-08-17T18:43:08.669Z,27.75
2022-08-17T18:48:19.290Z,27.96
2022-08-17T18:53:26.645Z,28.25
2022-08-17T18:58:35.927Z,28.41
2022-08-17T19:03:41.940Z,28.48
2022-08-17T19:08:44.273Z,28.54
2022-08-17T19:13:54.592Z,28.76
2022-08-17T19:18:56.140Z,29.01
2022-08-17T19:23:58.615Z,28.90
2022-08-17T19:29:02.768Z,29.28
2022-08-17T19:34:04.118Z,29.25
2022-08-17T19:39:16.226Z,29.42
2022-08-17T19:44:26.979Z,29.63
2022-08-17T19:49:46.806Z,29.88
2022-08-17T19:54:58.821Z,29.52
2022-08-17T20:00:16.818Z,29.86
2022-08-17T20:05:23.781Z,30.25
2022-08-17T20:10:38.628Z,30.20
2022-08-17T20:15:41.533Z,30.28
2022-08-17T20:20:59.498Z,30.66
2022-08-17T20:26:20.387Z,30.73
2022-08-17T20:31:41.977Z,31.10
2022-08-17T20:36:57.385Z,31.38
2022-08-17T20:42:26.963Z,31.65
2022-08-17T20:47:30.956Z,31.93
2022-08-17T20:52:35.552Z,32.09
2022-08-17T20:57:37.067Z,32.44
2022-08-17T21:02:38.519Z,32.81
2022-08-17T21:07:53.004Z,33.06
2022-08-17T21:12:57.590Z,32.95
2022-08-17T21:18:31.697Z,33.03
2022-08-17T21:23:55.978Z,32.62
2022-08-17T21:29:31.358Z,32.87
2022-08-17T21:34:44.136Z,32.90
2022-08-17T21:39:50.761Z,32.53
2022-08-17T21:44:55.507Z,32.61
2022-08-17T21:50:13.311Z,32.77
2022-08-17T21:55:24.694Z,33.02
2022-08-17T22:00:30.205Z,32.92
2022-08-17T22:05:36.423Z,33.15
2022-08-17T22:10:40.957Z,33.13
2022-08-17T22:15:43.621Z,33.63
2022-08-17T22:20:52.063Z,33.88
2022-08-17T22:26:00.067Z,33.81
2022-08-17T22:31:04.145Z,33.93
2022-08-17T22:36:11.688Z,33.99
2022-08-17T22:41:25.418Z,34.17
2022-08-17T22:46:26.761Z,34.06
2022-08-17T22:51:29.953Z,34.04
2022-08-17T22:56:49.755Z,34.05
2022-08-17T23:02:10.223Z,34.16
2022-08-17T23:07:11.704Z,34.53
2022-08-17T23:12:15.679Z,34.58
2022-08-17T23:17:17.233Z,34.55
2022-08-17T23:22:18.723Z,34.63
2022-08-17T23:27:20.568Z,34.61
2022-08-17T23:32:22.283Z,34.85
2022-08-17T23:37:23.610Z,34.74
2022-08-17T23:42:24.993Z,34.71
2022-08-17T23:47:26.341Z,34.73
2022-08-17T23:52:27.892Z,34.81
2022-08-17T23:57:33.131Z,34.77
